Time,TemperatureF,DewpointF,PressureIn,WindDirection,WindDirectionDegrees,WindSpeedMPH,WindSpeedGustMPH,Humidity,HourlyPrecipIn,Conditions,Clouds,dailyrainin,SoftwareType,DateUTC
2013-07-10 00:01:00,60.6,53.0,30.41,East,90,3.8,6.0,76,0.00,,,0.00,pywws,2013-07-09 23:01:00,
2013-07-10 00:13:00,60.6,53.0,30.41,NE,45,2.2,4.5,76,0.00,,,0.00,pywws,2013-07-09 23:13:00,
2013-07-10 00:21:00,60.4,53.2,30.41,East,90,3.1,4.5,77,0.00,,,0.00,pywws,2013-07-09 23:21:00,
2013-07-10 00:33:00,60.4,53.2,30.41,NE,45,2.2,3.8,77,0.00,,,0.00,pywws,2013-07-09 23:33:00,
2013-07-10 00:41:00,60.3,53.0,30.41,East,90,3.1,7.6,77,0.00,,,0.00,pywws,2013-07-09 23:41:00,
2013-07-10 00:53:00,60.3,53.0,30.41,East,90,3.1,5.4,77,0.00,,,0.00,pywws,2013-07-09 23:53:00,
2013-07-10 01:02:00,60.3,53.0,30.42,NE,45,4.5,6.9,77,0.00,,,0.00,pywws,2013-07-10 00:02:00,
2013-07-10 01:13:00,60.3,53.4,30.41,East,90,3.1,5.4,78,0.00,,,0.00,pywws,2013-07-10 00:13:00,
2013-07-10 01:21:00,60.1,53.2,30.41,NE,45,2.2,3.8,78,0.00,,,0.00,pywws,2013-07-10 00:21:00,
2013-07-10 01:33:00,60.1,53.2,30.41,NE,45,3.8,6.9,78,0.00,,,0.00,pywws,2013-07-10 00:33:00,
2013-07-10 01:41:00,59.9,53.0,30.41,East,90,2.2,4.5,78,0.00,,,0.00,pywws,2013-07-10 00:41:00,
2013-07-10 01:53:00,59.9,53.0,30.41,NE,45,1.6,3.8,78,0.00,,,0.00,pywws,2013-07-10 00:53:00,
2013-07-10 02:01:00,59.9,53.4,30.41,East,90,2.2,3.8,79,0.00,,,0.00,pywws,2013-07-10 01:01:00,
2013-07-10 02:13:00,59.9,53.4,30.41,SE,135,1.6,5.4,79,0.00,,,0.00,pywws,2013-07-10 01:13:00,
2013-07-10 02:21:00,59.9,53.4,30.41,ESE,112,0.7,2.2,79,0.00,,,0.00,pywws,2013-07-10 01:21:00,
2013-07-10 02:33:00,59.9,53.4,30.41,East,90,1.6,3.8,79,0.00,,,0.00,pywws,2013-07-10 01:33:00,
2013-07-10 02:41:00,59.7,53.2,30.41,East,90,3.1,5.4,79,0.00,,,0.00,pywws,2013-07-10 01:41:00,
2013-07-10 02:53:00,59.7,53.2,30.41,East,90,3.8,6.0,79,0.00,,,0.00,pywws,2013-07-10 01:53:00,
2013-07-10 03:01:00,59.7,53.2,30.41,East,90,1.6,3.1,79,0.00,,,0.00,pywws,2013-07-10 02:01:00,
2013-07-10 03:13:00,59.7,53.2,30.41,East,90,1.6,3.8,79,0.00,,,0.00,pywws,2013-07-10 02:13:00,
2013-07-10 03:21:00,59.5,53.4,30.41,NE,45,4.5,6.0,80,0.00,,,0.00,pywws,2013-07-10 02:21:00,
2013-07-10 03:33:00,59.5,53.4,30.41,East,90,3.1,4.5,80,0.00,,,0.00,pywws,2013-07-10 02:33:00,
2013-07-10 03:41:00,59.4,53.2,30.40,NE,45,1.6,3.8,80,0.00,,,0.00,pywws,2013-07-10 02:41:00,
2013-07-10 03:53:00,59.4,53.2,30.41,East,90,4.5,6.9,80,0.00,,,0.00,pywws,2013-07-10 02:53:00,
2013-07-10 04:01:00,59.4,53.2,30.41,NE,45,2.2,4.5,80,0.00,,,0.00,pywws,2013-07-10 03:01:00,
2013-07-10 04:13:00,59.4,53.2,30.41,East,90,3.1,4.5,80,0.00,,,0.00,pywws,2013-07-10 03:13:00,
2013-07-10 04:21:00,59.2,53.0,30.41,East,90,1.6,3.8,80,0.00,,,0.00,pywws,2013-07-10 03:21:00,
2013-07-10 04:33:00,59.2,53.0,30.40,East,90,2.2,3.8,80,0.00,,,0.00,pywws,2013-07-10 03:33:00,
2013-07-10 04:41:00,59.2,53.0,30.40,East,90,3.1,5.4,80,0.00,,,0.00,pywws,2013-07-10 03:41:00,
2013-07-10 04:53:00,59.2,53.0,30.40,NE,45,3.1,5.4,80,0.00,,,0.00,pywws,2013-07-10 03:53:00,
2013-07-10 05:02:00,59.2,53.0,30.40,East,90,4.5,6.0,80,0.00,,,0.00,pywws,2013-07-10 04:02:00,
2013-07-10 05:13:00,59.2,53.0,30.40,East,90,0.7,3.1,80,0.00,,,0.00,pywws,2013-07-10 04:13:00,
2013-07-10 05:21:00,59.2,53.0,30.41,East,90,2.2,3.8,80,0.00,,,0.00,pywws,2013-07-10 04:21:00,
2013-07-10 05:33:00,59.0,52.8,30.40,NNE,22,0.7,3.1,80,0.00,,,0.00,pywws,2013-07-10 04:33:00,
2013-07-10 05:41:00,59.0,52.8,30.40,NE,45,1.6,3.8,80,0.00,,,0.00,pywws,2013-07-10 04:41:00,
2013-07-10 05:53:00,59.0,52.8,30.40,North,0,3.1,4.5,80,0.00,,,0.00,pywws,2013-07-10 04:53:00,
2013-07-10 06:02:00,59.0,52.8,30.39,North,0,0.7,3.1,80,0.00,,,0.00,pywws,2013-07-10 05:02:00,
2013-07-10 06:13:00,59.0,52.8,30.40,SE,135,2.2,3.8,80,0.00,,,0.00,pywws,2013-07-10 05:13:00,
2013-07-10 06:21:00,59.0,52.8,30.39,East,90,2.2,3.8,80,0.00,,,0.00,pywws,2013-07-10 05:21:00,
2013-07-10 06:33:00,59.0,52.8,30.40,East,90,2.2,4.5,80,0.00,,,0.00,pywws,2013-07-10 05:33:00,
2013-07-10 06:41:00,59.0,52.8,30.40,East,90,2.2,3.8,80,0.00,,,0.00,pywws,2013-07-10 05:41:00,
2013-07-10 06:53:00,59.0,52.8,30.40,NE,45,1.6,3.8,80,0.00,,,0.00,pywws,2013-07-10 05:53:00,
2013-07-10 07:01:00,59.0,52.8,30.40,North,0,0.7,3.1,80,0.00,,,0.00,pywws,2013-07-10 06:01:00,
2013-07-10 07:13:00,59.0,52.8,30.40,East,90,0.7,2.2,80,0.00,,,0.00,pywws,2013-07-10 06:13:00,
2013-07-10 07:21:00,59.0,52.8,30.40,East,90,2.2,4.5,80,0.00,,,0.00,pywws,2013-07-10 06:21:00,
2013-07-10 07:33:00,59.0,52.8,30.41,NE,45,3.1,6.0,80,0.00,,,0.00,pywws,2013-07-10 06:33:00,
2013-07-10 07:41:00,59.0,52.8,30.40,East,90,2.2,3.1,80,0.00,,,0.00,pywws,2013-07-10 06:41:00,
2013-07-10 07:53:00,59.0,52.8,30.41,East,90,2.2,3.8,80,0.00,,,0.00,pywws,2013-07-10 06:53:00,
2013-07-10 08:01:00,59.0,52.8,30.41,NNE,22,1.6,3.8,80,0.00,,,0.00,pywws,2013-07-10 07:01:00,
2013-07-10 08:13:00,59.0,52.8,30.40,SE,135,2.2,3.8,80,0.00,,,0.00,pywws,2013-07-10 07:13:00,
2013-07-10 08:21:00,59.2,53.4,30.40,East,90,1.6,2.2,81,0.00,,,0.00,pywws,2013-07-10 07:21:00,
2013-07-10 08:33:00,59.4,53.5,30.40,East,90,3.1,4.5,81,0.00,,,0.00,pywws,2013-07-10 07:33:00,
2013-07-10 08:41:00,59.4,53.5,30.41,East,90,1.6,3.1,81,0.00,,,0.00,pywws,2013-07-10 07:41:00,
2013-07-10 08:53:00,59.5,53.7,30.41,East,90,4.5,6.9,81,0.00,,,0.00,pywws,2013-07-10 07:53:00,
2013-07-10 09:01:00,59.7,53.9,30.41,East,90,3.8,6.0,81,0.00,,,0.00,pywws,2013-07-10 08:01:00,
2013-07-10 09:13:00,59.7,53.9,30.40,East,90,3.1,5.4,81,0.00,,,0.00,pywws,2013-07-10 08:13:00,
2013-07-10 09:21:00,59.9,53.7,30.40,East,90,3.1,4.5,80,0.00,,,0.00,pywws,2013-07-10 08:21:00,
2013-07-10 09:33:00,60.1,53.9,30.40,WNW,292,2.2,4.5,80,0.00,,,0.00,pywws,2013-07-10 08:33:00,
2013-07-10 09:41:00,60.3,54.1,30.40,SE,135,3.8,5.4,80,0.00,,,0.00,pywws,2013-07-10 08:41:00,
2013-07-10 09:53:00,60.4,54.2,30.40,East,90,3.1,5.4,80,0.00,,,0.00,pywws,2013-07-10 08:53:00,
2013-07-10 10:01:00,60.4,53.9,30.40,NE,45,2.2,3.1,79,0.00,,,0.00,pywws,2013-07-10 09:01:00,
2013-07-10 10:13:00,60.6,54.1,30.40,ENE,68,3.1,6.0,79,0.00,,,0.00,pywws,2013-07-10 09:13:00,
2013-07-10 10:21:00,61.0,54.4,30.40,East,90,3.1,6.0,79,0.00,,,0.00,pywws,2013-07-10 09:21:00,
2013-07-10 10:33:00,61.2,54.6,30.40,SE,135,3.1,4.5,79,0.00,,,0.00,pywws,2013-07-10 09:33:00,
2013-07-10 10:41:00,61.5,54.6,30.40,NE,45,3.8,5.4,78,0.00,,,0.00,pywws,2013-07-10 09:41:00,
2013-07-10 10:53:00,61.9,54.9,30.40,North,0,3.1,6.0,78,0.00,,,0.00,pywws,2013-07-10 09:53:00,
2013-07-10 11:01:00,62.1,54.8,30.40,East,90,3.8,6.0,77,0.00,,,0.00,pywws,2013-07-10 10:01:00,
2013-07-10 11:13:00,62.2,54.6,30.40,SE,135,2.2,3.1,76,0.00,,,0.00,pywws,2013-07-10 10:13:00,
2013-07-10 11:21:00,62.8,55.1,30.40,East,90,2.2,4.5,76,0.00,,,0.00,pywws,2013-07-10 10:21:00,
2013-07-10 11:33:00,63.5,55.4,30.40,East,90,3.1,4.5,75,0.00,,,0.00,pywws,2013-07-10 10:33:00,
2013-07-10 11:41:00,63.9,55.4,30.40,East,90,3.1,5.4,74,0.00,,,0.00,pywws,2013-07-10 10:41:00,
2013-07-10 11:53:00,64.2,55.4,30.39,East,90,3.8,6.0,73,0.00,,,0.00,pywws,2013-07-10 10:53:00,
2013-07-10 12:01:00,64.6,55.3,30.39,East,90,2.2,3.8,72,0.00,,,0.00,pywws,2013-07-10 11:01:00,
2013-07-10 12:13:00,64.9,55.7,30.39,East,90,4.5,7.6,72,0.00,,,0.00,pywws,2013-07-10 11:13:00,
2013-07-10 12:21:00,65.3,55.3,30.40,East,90,3.8,6.0,70,0.00,,,0.00,pywws,2013-07-10 11:21:00,
2013-07-10 12:33:00,65.5,55.0,30.40,East,90,4.5,9.2,69,0.00,,,0.00,pywws,2013-07-10 11:33:00,
2013-07-10 12:41:00,65.8,55.4,30.39,NE,45,4.5,6.0,69,0.00,,,0.00,pywws,2013-07-10 11:41:00,
2013-07-10 12:53:00,66.2,55.3,30.40,NE,45,4.5,8.3,68,0.00,,,0.00,pywws,2013-07-10 11:53:00,
2013-07-10 13:01:00,66.6,55.3,30.39,East,90,3.1,6.9,67,0.00,,,0.00,pywws,2013-07-10 12:01:00,
2013-07-10 13:13:00,66.7,55.4,30.39,East,90,5.4,7.6,67,0.00,,,0.00,pywws,2013-07-10 12:13:00,
2013-07-10 13:21:00,67.3,55.5,30.40,NE,45,4.5,7.6,66,0.00,,,0.00,pywws,2013-07-10 12:21:00,
2013-07-10 13:33:00,67.5,55.7,30.39,SE,135,5.4,7.6,66,0.00,,,0.00,pywws,2013-07-10 12:33:00,
2013-07-10 13:41:00,67.6,55.4,30.39,East,90,6.9,11.4,65,0.00,,,0.00,pywws,2013-07-10 12:41:00,
2013-07-10 13:53:00,67.6,55.4,30.39,SE,135,4.5,8.3,65,0.00,,,0.00,pywws,2013-07-10 12:53:00,
2013-07-10 14:01:00,67.8,55.2,30.39,East,90,6.9,9.8,64,0.00,,,0.00,pywws,2013-07-10 13:01:00,
2013-07-10 14:13:00,68.0,55.4,30.39,East,90,4.5,6.9,64,0.00,,,0.00,pywws,2013-07-10 13:13:00,
2013-07-10 14:23:00,68.0,54.9,30.39,SE,135,3.8,6.9,63,0.00,,,0.00,pywws,2013-07-10 13:23:00,
2013-07-10 14:31:00,67.8,54.3,30.39,East,90,5.4,9.8,62,0.00,,,0.00,pywws,2013-07-10 13:31:00,
2013-07-10 14:41:00,67.6,54.1,30.39,East,90,4.5,8.3,62,0.00,,,0.00,pywws,2013-07-10 13:41:00,
2013-07-10 14:50:00,67.6,54.1,30.39,East,90,6.0,9.8,62,0.00,,,0.00,pywws,2013-07-10 13:50:00,
2013-07-10 14:51:00,68.0,54.5,30.38,East,90,4.5,7.6,62,0.00,,,0.00,pywws,2013-07-10 13:51:00,
2013-07-10 15:01:00,68.0,54.5,30.39,East,90,4.5,9.8,62,0.00,,,0.00,pywws,2013-07-10 14:01:00,
2013-07-10 15:10:00,68.0,54.5,30.38,NE,45,4.5,9.2,62,0.00,,,0.00,pywws,2013-07-10 14:10:00,
2013-07-10 15:21:00,68.4,54.4,30.38,East,90,6.0,9.2,61,0.00,,,0.00,pywws,2013-07-10 14:21:00,
2013-07-10 15:30:00,68.5,54.1,30.39,East,90,4.5,6.9,60,0.00,,,0.00,pywws,2013-07-10 14:30:00,
2013-07-10 15:41:00,68.4,53.9,30.38,NE,45,6.0,9.8,60,0.00,,,0.00,pywws,2013-07-10 14:41:00,
2013-07-10 15:50:00,68.2,54.2,30.37,NE,45,3.8,6.0,61,0.00,,,0.00,pywws,2013-07-10 14:50:00,
2013-07-10 15:51:00,68.2,54.2,30.37,East,90,4.5,7.6,61,0.00,,,0.00,pywws,2013-07-10 14:51:00,
2013-07-10 16:01:00,68.2,54.2,30.37,East,90,5.4,8.3,61,0.00,,,0.00,pywws,2013-07-10 15:01:00,
2013-07-10 16:10:00,68.2,54.2,30.37,East,90,5.4,10.7,61,0.00,,,0.00,pywws,2013-07-10 15:10:00,
2013-07-10 16:21:00,68.2,54.2,30.37,East,90,5.4,9.2,61,0.00,,,0.00,pywws,2013-07-10 15:21:00,
2013-07-10 16:30:00,68.2,54.2,30.37,East,90,4.5,8.3,61,0.00,,,0.00,pywws,2013-07-10 15:30:00,
2013-07-10 16:41:00,68.0,53.6,30.37,East,90,5.4,9.2,60,0.00,,,0.00,pywws,2013-07-10 15:41:00,
2013-07-10 16:50:00,67.6,53.2,30.37,East,90,6.0,10.7,60,0.00,,,0.00,pywws,2013-07-10 15:50:00,
2013-07-10 17:01:00,66.9,53.0,30.37,East,90,6.0,9.8,61,0.00,,,0.00,pywws,2013-07-10 16:01:00,
2013-07-10 17:10:00,66.7,52.9,30.37,SE,135,3.8,6.9,61,0.00,,,0.00,pywws,2013-07-10 16:10:00,
2013-07-10 17:11:00,66.6,52.7,30.36,East,90,5.4,6.9,61,0.00,,,0.00,pywws,2013-07-10 16:11:00,
2013-07-10 17:21:00,66.6,52.7,30.36,East,90,5.4,9.8,61,0.00,,,0.00,pywws,2013-07-10 16:21:00,
2013-07-10 17:30:00,66.4,52.5,30.36,East,90,5.4,9.2,61,0.00,,,0.00,pywws,2013-07-10 16:30:00,
2013-07-10 17:41:00,66.4,52.5,30.36,East,90,4.5,9.2,61,0.00,,,0.00,pywws,2013-07-10 16:41:00,
2013-07-10 17:50:00,66.4,52.5,30.35,NE,45,3.1,6.0,61,0.00,,,0.00,pywws,2013-07-10 16:50:00,
2013-07-10 18:01:00,66.2,52.3,30.35,NE,45,5.4,8.3,61,0.00,,,0.00,pywws,2013-07-10 17:01:00,
2013-07-10 18:10:00,66.2,52.3,30.35,East,90,3.8,8.3,61,0.00,,,0.00,pywws,2013-07-10 17:10:00,
2013-07-10 18:21:00,65.7,51.8,30.35,SE,135,3.1,5.4,61,0.00,,,0.00,pywws,2013-07-10 17:21:00,
2013-07-10 18:30:00,65.1,51.8,30.35,East,90,3.1,4.5,62,0.00,,,0.00,pywws,2013-07-10 17:30:00,
2013-07-10 18:31:00,65.1,51.8,30.35,East,90,4.5,6.9,62,0.00,,,0.00,pywws,2013-07-10 17:31:00,
2013-07-10 18:41:00,64.9,52.0,30.34,SE,135,3.1,6.9,63,0.00,,,0.00,pywws,2013-07-10 17:41:00,
2013-07-10 18:50:00,64.9,52.0,30.34,SE,135,5.4,8.3,63,0.00,,,0.00,pywws,2013-07-10 17:50:00,
2013-07-10 19:01:00,64.8,51.4,30.34,SE,135,4.5,7.6,62,0.00,,,0.00,pywws,2013-07-10 18:01:00,
2013-07-10 19:10:00,64.4,51.5,30.34,SE,135,4.5,6.9,63,0.00,,,0.00,pywws,2013-07-10 18:10:00,
2013-07-10 19:21:00,63.9,51.0,30.35,NNW,338,2.2,5.4,63,0.00,,,0.00,pywws,2013-07-10 18:21:00,
2013-07-10 19:30:00,63.1,50.8,30.34,East,90,4.5,6.9,64,0.00,,,0.00,pywws,2013-07-10 18:30:00,
2013-07-10 19:41:00,62.8,50.8,30.34,SE,135,3.1,4.5,65,0.00,,,0.00,pywws,2013-07-10 18:41:00,
2013-07-10 19:50:00,62.2,50.7,30.34,East,90,3.8,7.6,66,0.00,,,0.00,pywws,2013-07-10 18:50:00,
2013-07-10 19:51:00,61.9,50.8,30.35,East,90,2.2,3.8,67,0.00,,,0.00,pywws,2013-07-10 18:51:00,
2013-07-10 20:02:00,61.7,50.6,30.34,SE,135,4.5,6.0,67,0.00,,,0.00,pywws,2013-07-10 19:02:00,
2013-07-10 20:10:00,61.7,51.0,30.34,East,90,2.2,3.1,68,0.00,,,0.00,pywws,2013-07-10 19:10:00,
2013-07-10 20:21:00,61.2,50.9,30.35,East,90,3.1,4.5,69,0.00,,,0.00,pywws,2013-07-10 19:21:00,
2013-07-10 20:30:00,60.8,51.0,30.35,East,90,3.8,6.0,70,0.00,,,0.00,pywws,2013-07-10 19:30:00,
2013-07-10 20:41:00,60.3,50.4,30.35,East,90,4.5,7.6,70,0.00,,,0.00,pywws,2013-07-10 19:41:00,
2013-07-10 20:50:00,60.1,50.6,30.35,East,90,2.2,4.5,71,0.00,,,0.00,pywws,2013-07-10 19:50:00,
2013-07-10 21:01:00,59.7,50.7,30.35,East,90,3.8,6.0,72,0.00,,,0.00,pywws,2013-07-10 20:01:00,
2013-07-10 21:10:00,59.7,50.7,30.35,East,90,3.8,6.0,72,0.00,,,0.00,pywws,2013-07-10 20:10:00,
2013-07-10 21:11:00,59.5,50.9,30.35,East,90,4.5,7.6,73,0.00,,,0.00,pywws,2013-07-10 20:11:00,
2013-07-10 21:21:00,59.5,50.9,30.35,NE,45,3.1,4.5,73,0.00,,,0.00,pywws,2013-07-10 20:21:00,
2013-07-10 21:30:00,59.4,51.1,30.35,NE,45,3.1,5.4,74,0.00,,,0.00,pywws,2013-07-10 20:30:00,
2013-07-10 21:41:00,59.2,50.9,30.35,East,90,2.2,3.8,74,0.00,,,0.00,pywws,2013-07-10 20:41:00,
2013-07-10 21:50:00,59.2,51.3,30.35,North,0,4.5,6.9,75,0.00,,,0.00,pywws,2013-07-10 20:50:00,
2013-07-10 22:01:00,59.2,51.3,30.36,NE,45,1.6,3.1,75,0.00,,,0.00,pywws,2013-07-10 21:01:00,
2013-07-10 22:10:00,59.0,51.1,30.36,North,0,1.6,3.1,75,0.00,,,0.00,pywws,2013-07-10 21:10:00,
2013-07-10 22:21:00,59.0,51.1,30.36,East,90,2.2,3.8,75,0.00,,,0.00,pywws,2013-07-10 21:21:00,
2013-07-10 22:30:00,58.8,50.9,30.36,NE,45,2.2,4.5,75,0.00,,,0.00,pywws,2013-07-10 21:30:00,
2013-07-10 22:31:00,58.8,51.3,30.37,East,90,0.7,2.2,76,0.00,,,0.00,pywws,2013-07-10 21:31:00,
2013-07-10 22:41:00,58.8,51.3,30.36,East,90,2.2,3.8,76,0.00,,,0.00,pywws,2013-07-10 21:41:00,
2013-07-10 22:50:00,58.8,51.3,30.37,East,90,3.1,4.5,76,0.00,,,0.00,pywws,2013-07-10 21:50:00,
2013-07-10 23:01:00,58.8,51.3,30.36,East,90,2.2,3.8,76,0.00,,,0.00,pywws,2013-07-10 22:01:00,
2013-07-10 23:10:00,58.8,51.3,30.36,ENE,68,0.7,2.2,76,0.00,,,0.00,pywws,2013-07-10 22:10:00,
2013-07-10 23:21:00,58.8,51.3,30.36,NE,45,2.2,5.4,76,0.00,,,0.00,pywws,2013-07-10 22:21:00,
2013-07-10 23:30:00,58.8,51.3,30.37,East,90,3.1,5.4,76,0.00,,,0.00,pywws,2013-07-10 22:30:00,
2013-07-10 23:41:00,58.6,51.1,30.37,NW,315,2.2,3.8,76,0.00,,,0.00,pywws,2013-07-10 22:41:00,
2013-07-10 23:50:00,58.8,51.3,30.37,East,90,2.2,4.5,76,0.00,,,0.00,pywws,2013-07-10 22:50:00,
2013-07-10 23:51:00,58.8,51.3,30.36,East,90,2.2,4.5,76,0.00,,,0.00,pywws,2013-07-10 22:51:00,